< < Back
Terminal Aerodrome Forecast


Current Version              Previous Versions:   1  2  3  4  5  6  7  8  9  

Terminal Aerodrome Forecast

035
FTUS44 KMRX 221720
TAFCHA
TAF
KCHA 221720Z 2218/2318 01010KT P6SM SKC
     FM230000 00000KT P6SM SCT250=

Latest METAR

204
SAUS80 KWBC 221900
MTRCHA
METAR KCHA 221853Z 35011KT 10SM FEW150 SCT250 22/07 A3024 RMK AO2 SLP237
T02170072


USA.gov is the U.S. government's official web portal to all federal, state and local government web resources and services.